createdAt,value
2018-08-10T00:00:22.756Z,62.47
2018-08-10T00:04:27.143Z,117.37
2018-08-10T00:08:31.364Z,119.43
2018-08-10T00:12:35.672Z,108.03
2018-08-10T00:16:39.958Z,107.57
2018-08-10T00:20:44.208Z,116.13
2018-08-10T00:24:48.467Z,106.70
2018-08-10T00:28:52.770Z,106.13
2018-08-10T00:32:57.029Z,107.67
2018-08-10T00:37:01.301Z,92.80
2018-08-10T00:41:05.656Z,93.17
2018-08-10T00:45:11.057Z,89.63
2018-08-10T00:49:15.401Z,82.30
2018-08-10T00:53:19.638Z,98.40
2018-08-10T00:57:23.939Z,95.23
2018-08-10T01:01:28.264Z,87.63
2018-08-10T01:05:32.476Z,87.17
2018-08-10T01:09:36.804Z,77.07
2018-08-10T01:13:41.137Z,76.73
2018-08-10T01:17:46.164Z,86.60
2018-08-10T01:21:50.462Z,81.03
2018-08-10T01:25:54.834Z,82.10
2018-08-10T01:29:59.122Z,74.70
2018-08-10T01:34:03.440Z,87.37
2018-08-10T01:38:07.665Z,88.67
2018-08-10T01:42:11.932Z,126.77
2018-08-10T01:46:16.324Z,96.57
2018-08-10T01:50:20.593Z,103.83
2018-08-10T01:54:24.957Z,77.57
2018-08-10T01:58:29.162Z,81.10
2018-08-10T02:02:33.470Z,87.00
2018-08-10T02:06:37.783Z,72.23
2018-08-10T02:10:42.084Z,76.43
2018-08-10T02:14:46.300Z,85.63
2018-08-10T02:18:50.603Z,84.03
2018-08-10T02:22:54.937Z,85.77
2018-08-10T02:26:59.199Z,85.97
2018-08-10T02:31:03.503Z,94.10
2018-08-10T02:35:08.226Z,96.67
2018-08-10T02:39:13.286Z,90.50
2018-08-10T02:43:17.559Z,111.73
2018-08-10T02:47:23.711Z,90.20
2018-08-10T02:51:27.965Z,90.40
2018-08-10T02:55:32.287Z,79.30
2018-08-10T02:59:36.530Z,96.03
2018-08-10T03:03:40.849Z,112.30
2018-08-10T03:07:45.117Z,106.10
2018-08-10T03:11:49.396Z,95.53
2018-08-10T03:15:53.657Z,114.67
2018-08-10T03:19:57.902Z,110.63
2018-08-10T03:24:02.253Z,100.73
2018-08-10T03:28:06.470Z,95.90
2018-08-10T03:32:10.734Z,97.97
2018-08-10T03:36:14.987Z,85.93
2018-08-10T03:40:19.697Z,99.23
2018-08-10T03:44:23.925Z,82.97
2018-08-10T03:48:28.222Z,84.20
2018-08-10T03:52:32.454Z,66.80
2018-08-10T03:56:36.671Z,86.53
2018-08-10T04:00:40.918Z,79.20
2018-08-10T04:04:45.166Z,78.07
2018-08-10T04:08:49.392Z,66.43
2018-08-10T04:12:53.732Z,76.60
2018-08-10T04:16:57.984Z,77.57
2018-08-10T04:21:02.218Z,72.13
2018-08-10T04:25:06.592Z,67.10
2018-08-10T04:29:10.857Z,69.90
2018-08-10T04:33:15.333Z,65.17
2018-08-10T04:37:19.837Z,62.33
2018-08-10T04:41:24.105Z,68.50
2018-08-10T04:45:28.583Z,64.70
2018-08-10T04:49:32.883Z,68.93
2018-08-10T04:53:37.139Z,67.43
2018-08-10T04:57:41.823Z,61.17
2018-08-10T05:01:46.004Z,67.17
2018-08-10T05:05:50.257Z,56.77
2018-08-10T05:09:57.154Z,60.27
2018-08-10T05:14:01.309Z,57.03
2018-08-10T05:18:05.732Z,57.80
2018-08-10T05:22:09.996Z,55.57
2018-08-10T05:26:14.288Z,53.67
2018-08-10T05:30:18.851Z,109.70
2018-08-10T05:34:23.196Z,113.93
2018-08-10T05:38:27.449Z,106.07
2018-08-10T05:42:31.763Z,101.63
2018-08-10T05:46:36.063Z,64.47
2018-08-10T05:50:40.266Z,74.67
2018-08-10T05:54:44.482Z,69.67
2018-08-10T05:58:49.776Z,48.07
2018-08-10T06:02:54.013Z,48.40
2018-08-10T06:06:58.310Z,59.90
2018-08-10T06:11:02.535Z,72.05
2018-08-10T06:15:08.128Z,175.27
2018-08-10T06:19:12.349Z,58.43
2018-08-10T06:23:16.693Z,130.43
2018-08-10T06:27:20.896Z,154.37
2018-08-10T06:31:25.174Z,148.73
2018-08-10T06:35:29.437Z,119.93
2018-08-10T06:39:33.749Z,89.80
2018-08-10T06:43:37.955Z,82.00
2018-08-10T06:47:42.188Z,55.33
2018-08-10T06:51:46.358Z,51.60
2018-08-10T06:55:50.698Z,47.43
2018-08-10T06:59:54.916Z,84.83
2018-08-10T07:03:59.162Z,70.70
2018-08-10T07:08:03.405Z,65.67
2018-08-10T07:12:07.657Z,68.80
2018-08-10T07:16:11.853Z,33.13
2018-08-10T07:20:16.171Z,45.93
2018-08-10T07:24:20.424Z,78.70
2018-08-10T07:28:24.619Z,73.00
2018-08-10T07:32:28.847Z,41.37
2018-08-10T07:36:33.139Z,58.97
2018-08-10T07:40:37.433Z,35.50
2018-08-10T07:44:41.664Z,25.67
2018-08-10T07:48:48.860Z,31.77
2018-08-10T07:52:53.085Z,23.87
2018-08-10T07:56:57.296Z,26.17
2018-08-10T08:01:01.501Z,23.90
2018-08-10T08:05:07.018Z,22.60
2018-08-10T08:09:12.915Z,20.50
2018-08-10T08:13:17.185Z,21.03
2018-08-10T08:17:21.408Z,21.27
2018-08-10T08:21:25.677Z,20.20
2018-08-10T08:25:30.089Z,22.30
2018-08-10T08:29:34.828Z,21.03
2018-08-10T08:33:50.052Z,25.73
2018-08-10T08:38:00.839Z,29.43
2018-08-10T08:42:05.184Z,30.00
2018-08-10T08:46:10.507Z,27.50
2018-08-10T08:50:14.724Z,28.80
2018-08-10T08:56:31.487Z,30.10
2018-08-10T09:00:36.099Z,31.50
2018-08-10T09:04:53.416Z,34.67
2018-08-10T09:09:08.968Z,32.07
2018-08-10T09:13:13.220Z,24.70
2018-08-10T09:17:17.798Z,22.17
2018-08-10T09:21:21.943Z,26.00
2018-08-10T09:25:26.246Z,24.07
2018-08-10T09:29:30.664Z,26.37
2018-08-10T09:33:35.427Z,26.23
2018-08-10T09:37:40.597Z,26.23
2018-08-10T09:41:45.955Z,25.17
2018-08-10T09:45:50.473Z,23.80
2018-08-10T09:49:55.731Z,20.57
2018-08-10T09:54:02.304Z,23.13
2018-08-10T09:58:11.699Z,28.33
2018-08-10T10:02:19.548Z,28.40
2018-08-10T10:06:25.027Z,29.73
2018-08-10T10:10:30.183Z,32.00
2018-08-10T10:14:34.880Z,27.47
2018-08-10T10:18:40.032Z,32.70
2018-08-10T10:22:45.999Z,32.60
2018-08-10T10:26:52.396Z,35.47
2018-08-10T10:30:58.525Z,32.30
2018-08-10T10:35:05.063Z,32.70
2018-08-10T10:39:13.873Z,33.20
2018-08-10T10:43:19.367Z,33.63
2018-08-10T10:47:24.681Z,35.43
2018-08-10T10:51:29.513Z,34.40
2018-08-10T10:55:35.464Z,32.27
2018-08-10T10:59:40.420Z,28.07
2018-08-10T11:03:45.791Z,32.13
2018-08-10T11:07:51.145Z,33.37
2018-08-10T11:11:56.572Z,32.80
2018-08-10T11:16:02.414Z,38.27
2018-08-10T11:20:08.301Z,34.60
2018-08-10T11:24:14.004Z,35.13
2018-08-10T11:28:19.164Z,42.87
2018-08-10T11:32:23.815Z,37.83
2018-08-10T11:36:29.277Z,38.67
2018-08-10T11:40:34.561Z,38.33
2018-08-10T11:44:39.309Z,37.63
2018-08-10T11:48:45.360Z,39.27
2018-08-10T11:52:50.791Z,33.40
2018-08-10T11:56:56.315Z,39.27
2018-08-10T12:01:01.932Z,33.77
2018-08-10T12:05:08.870Z,37.30
2018-08-10T12:09:13.874Z,38.10
2018-08-10T12:13:19.163Z,37.90
2018-08-10T12:17:23.767Z,35.53
2018-08-10T12:21:28.227Z,34.97
2018-08-10T12:25:33.648Z,41.87
2018-08-10T12:29:39.201Z,33.77
2018-08-10T12:33:45.542Z,33.20
2018-08-10T12:37:50.955Z,31.50
2018-08-10T12:41:57.567Z,32.40
2018-08-10T12:46:03.964Z,31.87
2018-08-10T12:50:10.978Z,27.80
2018-08-10T12:54:16.048Z,26.57
2018-08-10T12:58:21.240Z,33.47
2018-08-10T13:02:28.309Z,31.80
2018-08-10T13:06:33.233Z,28.10
2018-08-10T13:10:39.312Z,30.37
2018-08-10T13:14:45.395Z,39.73
2018-08-10T13:18:50.037Z,41.80
2018-08-10T13:22:54.932Z,45.27
2018-08-10T13:26:59.587Z,52.53
2018-08-10T13:31:04.919Z,57.13
2018-08-10T13:35:09.304Z,75.37
2018-08-10T13:39:16.512Z,73.50
2018-08-10T13:43:20.842Z,75.60
2018-08-10T13:47:25.639Z,32.33
2018-08-10T13:51:30.089Z,66.50
2018-08-10T13:55:38.474Z,40.10
2018-08-10T13:59:43.535Z,29.63
2018-08-10T14:03:48.239Z,20.17
2018-08-10T14:07:53.306Z,24.10
2018-08-10T14:11:57.743Z,15.47
2018-08-10T14:16:02.327Z,15.10
2018-08-10T14:20:08.113Z,99.83
2018-08-10T14:24:13.540Z,89.57
2018-08-10T14:28:17.816Z,75.20
2018-08-10T14:32:22.307Z,94.20
2018-08-10T14:36:26.939Z,83.50
2018-08-10T14:40:31.282Z,24.70
2018-08-10T14:44:39.393Z,57.47
2018-08-10T14:48:44.295Z,22.13
2018-08-10T14:52:49.389Z,17.70
2018-08-10T14:56:54.719Z,18.17
2018-08-10T15:00:59.612Z,21.30
2018-08-10T15:05:05.558Z,22.43
2018-08-10T15:09:13.165Z,26.23
2018-08-10T15:13:22.629Z,30.67
2018-08-10T15:17:28.132Z,39.97
2018-08-10T15:21:36.434Z,76.23
2018-08-10T15:25:41.456Z,69.87
2018-08-10T15:29:46.835Z,31.73
2018-08-10T15:33:52.149Z,70.50
2018-08-10T15:37:57.149Z,72.17
2018-08-10T15:42:02.303Z,65.27
2018-08-10T15:46:07.441Z,27.30
2018-08-10T15:50:13.009Z,79.47
2018-08-10T15:54:18.080Z,42.00
2018-08-10T15:58:22.898Z,51.77
2018-08-10T16:02:28.486Z,79.60
2018-08-10T16:06:36.664Z,68.73
2018-08-10T16:10:44.317Z,69.67
2018-08-10T16:14:48.576Z,52.07
2018-08-10T16:19:00.679Z,47.77
2018-08-10T16:23:04.979Z,34.30
2018-08-10T16:27:09.825Z,33.60
2018-08-10T16:31:14.189Z,33.93
2018-08-10T16:35:18.421Z,31.40
2018-08-10T16:39:22.729Z,43.53
2018-08-10T16:43:27.024Z,52.03
2018-08-10T16:47:32.059Z,45.70
2018-08-10T16:51:36.449Z,40.80
2018-08-10T16:55:40.727Z,39.23
2018-08-10T16:59:45.079Z,35.73
2018-08-10T17:03:49.353Z,51.43
2018-08-10T17:07:54.124Z,67.60
2018-08-10T17:11:58.404Z,56.23
2018-08-10T17:16:03.029Z,86.97
2018-08-10T17:20:07.569Z,137.77
2018-08-10T17:24:11.848Z,133.17
2018-08-10T17:28:16.131Z,127.67
2018-08-10T17:32:20.540Z,52.23
2018-08-10T17:36:24.776Z,62.20
2018-08-10T17:40:29.010Z,129.87
2018-08-10T17:44:36.165Z,146.90
2018-08-10T17:48:41.130Z,138.23
2018-08-10T17:52:46.728Z,118.20
2018-08-10T17:56:51.912Z,57.67
2018-08-10T18:00:57.281Z,57.80
2018-08-10T18:05:01.594Z,70.17
2018-08-10T18:09:10.942Z,70.87
2018-08-10T18:13:16.487Z,69.37
2018-08-10T18:17:21.528Z,64.30
2018-08-10T18:21:26.748Z,79.70
2018-08-10T18:25:31.498Z,57.83
2018-08-10T18:29:36.386Z,53.33
2018-08-10T18:33:41.400Z,65.33
2018-08-10T18:37:47.153Z,58.53
2018-08-10T18:41:51.497Z,58.50
2018-08-10T18:45:55.877Z,44.33
2018-08-10T18:50:00.154Z,38.50
2018-08-10T18:54:05.709Z,31.40
2018-08-10T18:58:10.696Z,48.03
2018-08-10T19:02:15.435Z,39.93
2018-08-10T19:06:20.742Z,53.13
2018-08-10T19:10:27.031Z,62.13
2018-08-10T19:14:31.941Z,53.67
2018-08-10T19:18:36.768Z,33.73
2018-08-10T19:22:41.588Z,66.80
2018-08-10T19:26:47.004Z,215.57
2018-08-10T19:30:51.919Z,199.00
2018-08-10T19:34:56.765Z,179.70
2018-08-10T19:39:01.010Z,163.93
2018-08-10T19:43:05.790Z,37.07
2018-08-10T19:47:10.925Z,65.67
2018-08-10T19:51:15.558Z,213.23
2018-08-10T19:55:20.561Z,196.63
2018-08-10T19:59:25.087Z,217.27
2018-08-10T20:03:29.842Z,136.43
2018-08-10T20:07:34.280Z,86.87
2018-08-10T20:11:39.697Z,35.47
2018-08-10T20:15:44.613Z,45.23
2018-08-10T20:19:49.094Z,41.13
2018-08-10T20:23:53.698Z,48.97
2018-08-10T20:28:00.314Z,56.93
2018-08-10T20:32:05.275Z,52.03
2018-08-10T20:36:10.075Z,43.87
2018-08-10T20:40:17.229Z,48.63
2018-08-10T20:44:22.625Z,47.97
2018-08-10T20:48:27.543Z,32.73
2018-08-10T20:52:32.100Z,32.67
2018-08-10T20:56:36.598Z,49.27
2018-08-10T21:00:41.780Z,52.63
2018-08-10T21:04:45.981Z,53.83
2018-08-10T21:08:50.390Z,34.47
2018-08-10T21:12:54.800Z,26.73
2018-08-10T21:16:59.437Z,27.27
2018-08-10T21:21:03.835Z,30.93
2018-08-10T21:25:09.017Z,28.03
2018-08-10T21:29:13.293Z,28.90
2018-08-10T21:33:17.716Z,35.83
2018-08-10T21:37:21.980Z,58.03
2018-08-10T21:41:26.572Z,39.63
2018-08-10T21:45:30.848Z,41.27
2018-08-10T21:49:35.233Z,36.33
2018-08-10T21:53:39.557Z,63.43
2018-08-10T21:57:43.754Z,53.20
2018-08-10T22:01:48.088Z,59.10
2018-08-10T22:05:52.399Z,52.17
2018-08-10T22:09:56.762Z,50.57
2018-08-10T22:14:06.155Z,56.30
2018-08-10T22:18:15.681Z,46.60
2018-08-10T22:22:19.938Z,56.37
2018-08-10T22:26:24.321Z,69.17
2018-08-10T22:30:28.836Z,64.17
2018-08-10T22:34:33.176Z,70.10
2018-08-10T22:38:37.420Z,39.63
2018-08-10T22:42:41.735Z,69.43
2018-08-10T22:46:45.968Z,57.00
2018-08-10T22:50:50.300Z,54.77
2018-08-10T22:54:54.557Z,35.97
2018-08-10T22:58:58.854Z,47.83
2018-08-10T23:03:03.082Z,32.57
2018-08-10T23:07:07.499Z,55.77
2018-08-10T23:11:11.769Z,38.30
2018-08-10T23:15:16.129Z,58.57
2018-08-10T23:19:20.358Z,44.73
2018-08-10T23:23:24.795Z,56.17
2018-08-10T23:27:29.015Z,62.23
2018-08-10T23:31:33.490Z,63.27
2018-08-10T23:35:37.760Z,51.33
2018-08-10T23:39:42.235Z,22.60
2018-08-10T23:43:46.481Z,31.17
2018-08-10T23:47:50.926Z,18.43
2018-08-10T23:51:55.256Z,21.53
2018-08-10T23:55:59.573Z,27.53
